createdAt,value
2017-11-08T00:01:35.737Z,15.60
2017-11-08T00:04:03.853Z,9.57
2017-11-08T00:06:32.001Z,11.15
2017-11-08T00:09:00.142Z,10.73
2017-11-08T00:11:28.301Z,12.15
2017-11-08T00:13:57.192Z,11.07
2017-11-08T00:16:25.336Z,12.52
2017-11-08T00:18:53.470Z,10.13
2017-11-08T00:21:21.621Z,10.63
2017-11-08T00:23:49.754Z,9.18
2017-11-08T00:26:17.902Z,12.73
2017-11-08T00:28:46.040Z,10.40
2017-11-08T00:31:14.962Z,9.43
2017-11-08T00:33:43.090Z,10.02
2017-11-08T00:36:12.014Z,11.55
2017-11-08T00:38:40.160Z,11.00
2017-11-08T00:41:09.090Z,19.67
2017-11-08T00:43:37.227Z,10.77
2017-11-08T00:46:06.155Z,21.15
2017-11-08T00:48:34.282Z,14.27
2017-11-08T00:51:02.439Z,15.07
2017-11-08T00:53:30.589Z,10.13
2017-11-08T00:55:58.744Z,17.15
2017-11-08T00:58:26.869Z,20.85
2017-11-08T01:00:59.950Z,15.48
2017-11-08T01:03:28.073Z,13.68
2017-11-08T01:05:56.234Z,15.88
2017-11-08T01:08:24.370Z,14.25
2017-11-08T01:10:52.538Z,15.27
2017-11-08T01:13:20.682Z,17.90
2017-11-08T01:15:48.849Z,17.95
2017-11-08T01:18:16.985Z,16.83
2017-11-08T01:20:45.922Z,19.40
2017-11-08T01:23:14.061Z,18.55
2017-11-08T01:25:42.962Z,18.98
2017-11-08T01:28:11.113Z,22.95
2017-11-08T01:30:40.022Z,19.65
2017-11-08T01:33:08.178Z,22.70
2017-11-08T01:35:37.089Z,20.17
2017-11-08T01:38:10.956Z,24.33
2017-11-08T01:40:44.042Z,20.42
2017-11-08T01:43:12.199Z,27.40
2017-11-08T01:45:42.114Z,29.08
2017-11-08T01:48:10.285Z,26.20
2017-11-08T01:50:39.198Z,25.98
2017-11-08T01:53:07.357Z,19.48
2017-11-08T01:55:38.419Z,24.92
2017-11-08T01:58:06.604Z,25.33
2017-11-08T02:00:34.741Z,23.12
2017-11-08T02:03:02.898Z,24.37
2017-11-08T02:05:31.035Z,30.80
2017-11-08T02:07:59.190Z,25.17
2017-11-08T02:10:28.358Z,26.00
2017-11-08T02:12:56.520Z,21.50
2017-11-08T02:15:24.656Z,27.23
2017-11-08T02:17:52.817Z,24.90
2017-11-08T02:20:21.713Z,31.75
2017-11-08T02:22:49.878Z,27.67
2017-11-08T02:25:18.807Z,28.35
2017-11-08T02:27:46.962Z,31.90
2017-11-08T02:30:15.853Z,29.73
2017-11-08T02:32:44.012Z,30.23
2017-11-08T02:35:12.916Z,30.73
2017-11-08T02:37:41.849Z,30.42
2017-11-08T02:40:10.033Z,32.88
2017-11-08T02:42:38.196Z,35.90
2017-11-08T02:45:08.352Z,29.58
2017-11-08T02:47:36.509Z,33.42
2017-11-08T02:50:04.676Z,38.30
2017-11-08T02:52:32.841Z,36.35
2017-11-08T02:55:02.828Z,43.38
2017-11-08T02:57:30.962Z,42.35
2017-11-08T02:59:59.119Z,35.67
2017-11-08T03:02:30.169Z,33.53
2017-11-08T03:07:53.367Z,29.10
2017-11-08T03:10:22.293Z,33.35
2017-11-08T03:12:50.436Z,33.45
2017-11-08T03:15:19.382Z,38.30
2017-11-08T03:17:47.511Z,43.42
2017-11-08T03:20:15.667Z,39.97
2017-11-08T03:22:43.798Z,33.85
2017-11-08T03:25:11.956Z,41.72
2017-11-08T03:27:40.080Z,41.78
2017-11-08T03:30:08.244Z,44.30
2017-11-08T03:32:36.377Z,46.28
2017-11-08T03:35:04.543Z,40.05
2017-11-08T03:37:32.674Z,45.53
2017-11-08T03:40:00.829Z,37.80
2017-11-08T03:42:28.962Z,37.88
2017-11-08T03:44:57.123Z,36.50
2017-11-08T03:47:25.250Z,43.05
2017-11-08T03:49:53.426Z,34.85
2017-11-08T03:52:21.579Z,40.45
2017-11-08T03:54:49.714Z,37.42
2017-11-08T03:57:17.876Z,40.65
2017-11-08T03:59:46.028Z,44.42
2017-11-08T04:02:14.188Z,35.38
2017-11-08T04:04:42.312Z,37.13
2017-11-08T04:07:10.467Z,39.28
2017-11-08T04:09:38.602Z,47.40
2017-11-08T04:12:06.770Z,38.58
2017-11-08T04:14:34.905Z,37.60
2017-11-08T04:17:03.063Z,38.85
2017-11-08T04:19:31.197Z,36.25
2017-11-08T04:21:59.349Z,43.38
2017-11-08T04:24:27.510Z,46.13
2017-11-08T04:26:55.665Z,35.72
2017-11-08T04:29:23.810Z,45.90
2017-11-08T04:31:51.967Z,45.88
2017-11-08T04:34:20.093Z,44.13
2017-11-08T04:36:48.250Z,43.42
2017-11-08T04:39:16.381Z,42.58
2017-11-08T04:41:44.529Z,40.38
2017-11-08T04:44:12.669Z,43.83
2017-11-08T04:46:41.585Z,44.80
2017-11-08T04:49:09.741Z,44.67
2017-11-08T04:51:37.902Z,46.67
2017-11-08T04:54:06.029Z,47.90
2017-11-08T04:56:34.189Z,46.65
2017-11-08T04:59:02.321Z,46.67
2017-11-08T05:01:31.241Z,38.70
2017-11-08T05:03:59.370Z,50.80
2017-11-08T05:06:27.529Z,59.55
2017-11-08T05:08:55.653Z,44.92
2017-11-08T05:11:23.823Z,54.55
2017-11-08T05:13:51.984Z,50.47
2017-11-08T05:16:20.873Z,50.70
2017-11-08T05:18:49.026Z,53.72
2017-11-08T05:21:17.173Z,55.72
2017-11-08T05:23:45.331Z,52.92
2017-11-08T05:26:13.461Z,51.35
2017-11-08T05:28:41.621Z,59.80
2017-11-08T05:31:09.749Z,53.97
2017-11-08T05:33:37.905Z,60.38
2017-11-08T05:36:06.562Z,51.33
2017-11-08T05:38:34.722Z,45.03
2017-11-08T05:41:02.855Z,53.53
2017-11-08T05:43:31.014Z,54.53
2017-11-08T05:45:59.143Z,52.90
2017-11-08T05:48:27.308Z,60.22
2017-11-08T05:50:55.468Z,52.85
2017-11-08T05:53:23.645Z,49.85
2017-11-08T05:55:51.794Z,51.90
2017-11-08T05:58:19.931Z,54.58
2017-11-08T06:00:48.106Z,55.83
2017-11-08T06:03:16.999Z,64.75
2017-11-08T06:05:45.126Z,60.88
2017-11-08T06:08:13.283Z,66.30
2017-11-08T06:10:41.413Z,71.43
2017-11-08T06:13:09.594Z,59.20
2017-11-08T06:15:37.730Z,64.03
2017-11-08T06:18:05.882Z,75.00
2017-11-08T06:20:34.010Z,68.15
2017-11-08T06:23:02.169Z,64.05
2017-11-08T06:25:30.335Z,66.75
2017-11-08T06:27:58.508Z,65.50
2017-11-08T06:30:26.682Z,56.05
2017-11-08T06:32:54.846Z,65.25
2017-11-08T06:35:22.978Z,62.62
2017-11-08T06:37:51.135Z,59.75
2017-11-08T06:40:19.270Z,57.15
2017-11-08T06:42:47.425Z,64.05
2017-11-08T06:45:15.545Z,76.10
2017-11-08T06:47:44.470Z,65.85
2017-11-08T06:50:12.602Z,61.67
2017-11-08T06:52:40.725Z,56.92
2017-11-08T06:55:08.878Z,62.50
2017-11-08T06:57:37.007Z,66.00
2017-11-08T07:00:05.166Z,68.55
2017-11-08T07:02:33.289Z,58.97
2017-11-08T07:05:01.449Z,59.63
2017-11-08T07:07:29.591Z,62.75
2017-11-08T07:09:57.744Z,56.40
2017-11-08T07:12:25.869Z,59.35
2017-11-08T07:14:54.800Z,64.12
2017-11-08T07:17:22.933Z,65.75
2017-11-08T07:19:51.854Z,61.35
2017-11-08T07:22:22.812Z,63.83
2017-11-08T07:24:50.974Z,60.03
2017-11-08T07:27:19.102Z,58.13
2017-11-08T07:29:47.269Z,55.97
2017-11-08T07:32:15.393Z,56.17
2017-11-08T07:34:43.525Z,62.75
2017-11-08T07:37:11.680Z,57.67
2017-11-08T07:39:39.815Z,65.25
2017-11-08T07:42:07.957Z,60.00
2017-11-08T07:44:36.912Z,68.32
2017-11-08T07:47:05.061Z,53.17
2017-11-08T07:49:33.189Z,58.42
2017-11-08T07:52:10.369Z,56.95
2017-11-08T07:54:39.262Z,59.75
2017-11-08T07:57:07.416Z,52.05
2017-11-08T07:59:38.457Z,58.10
2017-11-08T08:02:06.605Z,46.17
2017-11-08T08:04:34.737Z,53.83
2017-11-08T08:07:02.893Z,56.85
2017-11-08T08:09:34.643Z,58.08
2017-11-08T08:12:02.797Z,47.00
2017-11-08T08:14:30.924Z,51.15
2017-11-08T08:16:59.081Z,56.00
2017-11-08T08:19:27.997Z,56.10
2017-11-08T08:21:56.149Z,54.03
2017-11-08T08:24:25.043Z,53.30
2017-11-08T08:26:53.198Z,51.33
2017-11-08T08:29:22.104Z,46.83
2017-11-08T08:31:50.264Z,53.13
2017-11-08T08:34:19.154Z,50.28
2017-11-08T08:36:47.301Z,47.47
2017-11-08T08:39:15.433Z,50.58
2017-11-08T08:41:43.592Z,57.95
2017-11-08T08:44:12.520Z,49.40
2017-11-08T08:46:40.690Z,48.58
2017-11-08T08:49:08.824Z,45.40
2017-11-08T08:51:36.981Z,49.28
2017-11-08T08:54:05.124Z,51.47
2017-11-08T08:56:33.280Z,49.55
2017-11-08T08:59:01.758Z,49.72
2017-11-08T09:01:30.405Z,51.42
2017-11-08T09:03:58.577Z,52.10
2017-11-08T09:06:27.497Z,50.95
2017-11-08T09:08:55.622Z,49.83
2017-11-08T09:11:23.813Z,52.88
2017-11-08T09:13:52.706Z,52.00
2017-11-08T09:16:21.630Z,52.53
2017-11-08T09:18:49.759Z,54.70
2017-11-08T09:21:17.914Z,53.00
2017-11-08T09:23:46.051Z,56.05
2017-11-08T09:26:16.142Z,61.58
2017-11-08T09:28:45.039Z,53.67
2017-11-08T09:31:18.749Z,55.90
2017-11-08T09:33:46.882Z,54.97
2017-11-08T09:36:15.045Z,56.37
2017-11-08T09:38:43.237Z,54.40
2017-11-08T09:41:11.394Z,60.75
2017-11-08T09:43:39.526Z,51.30
2017-11-08T09:46:07.690Z,57.70
2017-11-08T09:48:35.816Z,50.53
2017-11-08T09:51:03.974Z,50.58
2017-11-08T09:53:32.102Z,57.03
2017-11-08T09:56:00.265Z,51.95
2017-11-08T09:58:28.397Z,49.83
2017-11-08T10:00:56.546Z,57.55
2017-11-08T10:03:24.672Z,62.65
2017-11-08T10:05:52.847Z,55.40
2017-11-08T10:08:21.029Z,57.95
2017-11-08T10:10:49.934Z,54.92
2017-11-08T10:13:19.345Z,50.25
2017-11-08T10:15:47.468Z,59.03
2017-11-08T10:18:15.626Z,54.75
2017-11-08T10:20:43.758Z,70.47
2017-11-08T10:23:11.944Z,55.55
2017-11-08T10:25:40.074Z,51.95
2017-11-08T10:28:08.234Z,56.17
2017-11-08T10:30:36.361Z,56.95
2017-11-08T10:33:04.520Z,57.67
2017-11-08T10:35:33.410Z,58.35
2017-11-08T10:38:01.563Z,56.70
2017-11-08T10:40:29.703Z,55.55
2017-11-08T10:42:57.840Z,50.58
2017-11-08T10:45:25.998Z,55.22
2017-11-08T10:47:54.158Z,52.20
2017-11-08T10:50:22.314Z,56.40
2017-11-08T10:52:54.410Z,58.95
2017-11-08T10:55:22.545Z,60.15
2017-11-08T10:57:50.706Z,57.90
2017-11-08T11:00:24.440Z,57.65
2017-11-08T11:02:59.762Z,53.05
2017-11-08T11:05:28.660Z,50.33
2017-11-08T11:07:56.822Z,52.72
2017-11-08T11:10:25.736Z,54.60
2017-11-08T11:12:53.894Z,56.85
2017-11-08T11:15:22.026Z,58.22
2017-11-08T11:17:50.190Z,53.90
2017-11-08T11:20:19.235Z,48.78
2017-11-08T11:22:47.396Z,55.35
2017-11-08T11:25:16.472Z,48.33
2017-11-08T11:27:44.634Z,50.33
2017-11-08T11:30:14.690Z,55.60
2017-11-08T11:32:43.636Z,51.65
2017-11-08T11:35:11.762Z,51.67
2017-11-08T11:37:45.499Z,52.88
2017-11-08T11:40:13.645Z,57.80
2017-11-08T11:42:41.823Z,54.25
2017-11-08T11:45:10.732Z,50.17
2017-11-08T11:47:38.908Z,62.95
2017-11-08T11:50:07.038Z,52.60
2017-11-08T11:52:35.223Z,50.80
2017-11-08T11:55:03.404Z,56.45
2017-11-08T11:57:31.535Z,52.67
2017-11-08T12:00:02.627Z,49.97
2017-11-08T12:02:31.525Z,52.13
2017-11-08T12:04:59.681Z,50.58
2017-11-08T12:07:27.821Z,54.72
2017-11-08T12:09:55.977Z,53.25
2017-11-08T12:12:24.116Z,51.03
2017-11-08T12:14:52.277Z,59.72
2017-11-08T12:17:20.411Z,50.58
2017-11-08T12:19:48.574Z,54.92
2017-11-08T12:22:16.698Z,51.85
2017-11-08T12:24:44.859Z,45.38
2017-11-08T12:27:14.745Z,50.00
2017-11-08T12:29:42.908Z,54.65
2017-11-08T12:32:11.035Z,51.92
2017-11-08T12:34:39.811Z,55.75
2017-11-08T12:37:07.943Z,56.15
2017-11-08T12:39:36.079Z,52.83
2017-11-08T12:42:04.238Z,50.35
2017-11-08T12:47:34.350Z,55.15
2017-11-08T12:50:02.506Z,53.40
2017-11-08T12:52:30.636Z,52.83
2017-11-08T12:54:58.820Z,48.45
2017-11-08T12:57:26.953Z,45.70
2017-11-08T12:59:55.096Z,47.05
2017-11-08T13:02:23.252Z,48.13
2017-11-08T13:04:51.386Z,45.47
2017-11-08T13:07:19.538Z,49.55
2017-11-08T13:09:47.672Z,47.28
2017-11-08T13:12:16.588Z,42.92
2017-11-08T13:14:44.718Z,40.38
2017-11-08T13:17:13.662Z,41.22
2017-11-08T13:19:41.801Z,44.53
2017-11-08T13:22:10.733Z,48.13
2017-11-08T13:24:38.869Z,41.25
2017-11-08T13:27:07.800Z,50.92
2017-11-08T13:29:35.953Z,41.65
2017-11-08T13:32:04.114Z,44.80
2017-11-08T13:34:32.243Z,41.95
2017-11-08T13:37:00.394Z,51.03
2017-11-08T13:39:28.558Z,47.80
2017-11-08T13:41:56.735Z,50.38
2017-11-08T13:44:24.870Z,46.97
2017-11-08T13:46:53.039Z,40.33
2017-11-08T13:49:21.935Z,46.33
2017-11-08T13:51:50.071Z,49.85
2017-11-08T13:54:18.247Z,47.17
2017-11-08T13:56:47.054Z,41.20
2017-11-08T13:59:15.215Z,42.53
2017-11-08T14:01:43.337Z,40.05
2017-11-08T14:04:11.497Z,43.63
2017-11-08T14:06:39.639Z,39.60
2017-11-08T14:09:07.795Z,43.40
2017-11-08T14:11:35.933Z,43.33
2017-11-08T14:14:04.094Z,39.10
2017-11-08T14:16:32.221Z,44.03
2017-11-08T14:19:00.388Z,46.83
2017-11-08T14:21:28.523Z,43.42
2017-11-08T14:23:56.694Z,47.60
2017-11-08T14:26:24.828Z,41.55
2017-11-08T14:28:53.008Z,46.53
2017-11-08T14:31:21.151Z,47.20
2017-11-08T14:33:49.297Z,40.50
2017-11-08T14:36:17.472Z,44.28
2017-11-08T14:38:45.606Z,44.78
2017-11-08T14:41:13.766Z,46.13
2017-11-08T14:43:41.894Z,48.38
2017-11-08T14:46:10.047Z,44.20
2017-11-08T14:48:38.178Z,38.47
2017-11-08T14:51:06.379Z,43.53
2017-11-08T14:53:40.120Z,41.05
2017-11-08T14:56:08.712Z,44.30
2017-11-08T14:58:36.856Z,41.22
2017-11-08T15:01:05.035Z,40.65
2017-11-08T15:03:33.212Z,45.38
2017-11-08T15:06:01.375Z,42.28
2017-11-08T15:08:30.532Z,41.63
2017-11-08T15:10:58.685Z,42.80
2017-11-08T15:13:26.810Z,43.92
2017-11-08T15:15:54.962Z,40.03
2017-11-08T15:18:23.094Z,44.20
2017-11-08T15:20:51.421Z,45.35
2017-11-08T15:23:19.552Z,40.80
2017-11-08T15:25:47.733Z,45.33
2017-11-08T15:28:15.873Z,45.95
2017-11-08T15:30:44.026Z,48.40
2017-11-08T15:33:12.181Z,42.45
2017-11-08T15:35:40.310Z,42.60
2017-11-08T15:38:08.498Z,48.08
2017-11-08T15:40:36.635Z,42.17
2017-11-08T15:43:05.558Z,48.03
2017-11-08T15:45:33.699Z,42.97
2017-11-08T15:48:02.628Z,52.95
2017-11-08T15:50:30.765Z,45.97
2017-11-08T15:52:59.694Z,46.33
2017-11-08T15:55:27.826Z,42.45
2017-11-08T15:57:56.788Z,42.65
2017-11-08T16:00:24.929Z,43.50
2017-11-08T16:02:53.094Z,42.42
2017-11-08T16:05:21.226Z,45.63
2017-11-08T16:07:49.409Z,42.80
2017-11-08T16:10:18.398Z,42.28
2017-11-08T16:12:51.104Z,40.20
2017-11-08T16:15:19.307Z,47.05
2017-11-08T16:17:52.442Z,44.00
2017-11-08T16:20:22.357Z,47.88
2017-11-08T16:22:51.345Z,44.50
2017-11-08T16:25:19.521Z,48.87
2017-11-08T16:27:49.427Z,46.60
2017-11-08T16:30:17.568Z,47.10
2017-11-08T16:32:45.969Z,46.37
2017-11-08T16:35:14.158Z,48.75
2017-11-08T16:37:42.314Z,42.97
2017-11-08T16:40:10.576Z,48.30
2017-11-08T16:42:38.809Z,49.45
2017-11-08T16:45:06.985Z,52.03
2017-11-08T16:47:35.178Z,45.92
2017-11-08T16:50:03.388Z,52.83
2017-11-08T16:52:31.542Z,48.97
2017-11-08T16:54:59.736Z,52.20
2017-11-08T16:57:27.875Z,50.50
2017-11-08T16:59:56.056Z,46.17
2017-11-08T17:02:24.253Z,48.33
2017-11-08T17:04:52.464Z,45.45
2017-11-08T17:07:20.658Z,49.30
2017-11-08T17:09:48.843Z,47.20
2017-11-08T17:12:16.999Z,47.00
2017-11-08T17:14:45.189Z,49.78
2017-11-08T17:17:13.317Z,42.70
2017-11-08T17:19:41.541Z,50.28
2017-11-08T17:22:09.728Z,49.65
2017-11-08T17:24:37.906Z,50.22
2017-11-08T17:27:06.082Z,57.85
2017-11-08T17:29:35.404Z,45.10
2017-11-08T17:32:03.681Z,46.15
2017-11-08T17:34:31.832Z,46.53
2017-11-08T17:37:00.074Z,48.10
2017-11-08T17:39:28.462Z,46.25
2017-11-08T17:41:57.336Z,43.95
2017-11-08T17:44:25.586Z,49.20
2017-11-08T17:46:53.952Z,52.60
2017-11-08T17:49:22.289Z,50.33
2017-11-08T17:51:50.974Z,45.03
2017-11-08T17:54:19.651Z,45.03
2017-11-08T17:56:48.241Z,50.12
2017-11-08T17:59:16.674Z,48.03
2017-11-08T18:01:45.523Z,45.58
2017-11-08T18:04:14.073Z,51.33
2017-11-08T18:06:42.288Z,46.37
2017-11-08T18:09:10.476Z,48.28
2017-11-08T18:11:38.656Z,53.13
2017-11-08T18:14:07.538Z,45.67
2017-11-08T18:16:36.250Z,48.00
2017-11-08T18:19:05.115Z,46.13
2017-11-08T18:21:33.314Z,48.92
2017-11-08T18:24:01.813Z,50.88
2017-11-08T18:26:30.687Z,49.10
2017-11-08T18:28:58.853Z,54.95
2017-11-08T18:31:28.036Z,49.30
2017-11-08T18:33:56.714Z,49.58
2017-11-08T18:36:26.659Z,47.67
2017-11-08T18:38:56.102Z,48.45
2017-11-08T18:41:25.335Z,44.78
2017-11-08T18:43:54.022Z,53.60
2017-11-08T18:46:22.480Z,45.17
2017-11-08T18:48:50.927Z,48.38
2017-11-08T18:51:19.362Z,53.83
2017-11-08T18:53:48.095Z,53.22
2017-11-08T18:56:17.262Z,56.20
2017-11-08T18:58:45.703Z,49.95
2017-11-08T19:01:14.332Z,53.13
2017-11-08T19:03:42.826Z,49.45
2017-11-08T19:06:12.718Z,59.00
2017-11-08T19:08:41.424Z,54.50
2017-11-08T19:11:10.032Z,54.28
2017-11-08T19:13:40.007Z,54.72
2017-11-08T19:16:08.183Z,57.65
2017-11-08T19:18:36.485Z,55.50
2017-11-08T19:21:05.103Z,55.10
2017-11-08T19:23:33.466Z,65.78
2017-11-08T19:26:01.701Z,57.88
2017-11-08T19:31:11.090Z,52.60
2017-11-08T19:33:39.652Z,58.33
2017-11-08T19:36:08.093Z,58.95
2017-11-08T19:38:36.322Z,59.20
2017-11-08T19:41:08.039Z,54.42
2017-11-08T19:43:37.428Z,55.92
2017-11-08T19:46:05.725Z,51.95
2017-11-08T19:48:34.696Z,62.97
2017-11-08T19:51:03.166Z,61.78
2017-11-08T19:53:31.357Z,55.47
2017-11-08T19:55:59.487Z,60.10
2017-11-08T19:58:27.642Z,61.50
2017-11-08T20:00:56.562Z,57.13
2017-11-08T20:03:24.722Z,55.00
2017-11-08T20:05:53.552Z,58.70
2017-11-08T20:08:23.610Z,59.17
2017-11-08T20:10:51.934Z,61.63
2017-11-08T20:13:20.085Z,56.88
2017-11-08T20:15:48.265Z,54.97
2017-11-08T20:18:16.425Z,54.58
2017-11-08T20:20:44.650Z,60.88
2017-11-08T20:23:12.841Z,57.03
2017-11-08T20:25:41.031Z,55.80
2017-11-08T20:28:09.944Z,56.15
2017-11-08T20:30:38.117Z,58.17
2017-11-08T20:33:07.007Z,58.97
2017-11-08T20:35:35.253Z,55.10
2017-11-08T20:38:03.405Z,66.25
2017-11-08T20:40:31.571Z,59.38
2017-11-08T20:42:59.708Z,61.60
2017-11-08T20:45:27.863Z,54.38
2017-11-08T20:47:56.032Z,64.78
2017-11-08T20:50:24.220Z,54.40
2017-11-08T20:52:53.127Z,59.55
2017-11-08T20:55:21.315Z,61.42
2017-11-08T20:57:49.442Z,54.55
2017-11-08T21:00:17.637Z,56.03
2017-11-08T21:02:45.828Z,55.12
2017-11-08T21:05:13.998Z,50.42
2017-11-08T21:07:42.172Z,64.20
2017-11-08T21:10:10.342Z,60.70
2017-11-08T21:12:38.497Z,59.67
2017-11-08T21:15:06.660Z,52.45
2017-11-08T21:17:34.830Z,54.67
2017-11-08T21:20:02.977Z,53.92
2017-11-08T21:22:31.134Z,56.50
2017-11-08T21:24:59.274Z,56.75
2017-11-08T21:27:27.455Z,64.37
2017-11-08T21:29:55.647Z,60.75
2017-11-08T21:32:23.822Z,56.65
2017-11-08T21:34:51.981Z,67.80
2017-11-08T21:37:20.163Z,60.03
2017-11-08T21:39:48.308Z,59.22
2017-11-08T21:42:16.471Z,55.50
2017-11-08T21:44:45.419Z,57.47
2017-11-08T21:47:13.578Z,57.78
2017-11-08T21:49:41.722Z,58.30
2017-11-08T21:52:09.929Z,49.35
2017-11-08T21:54:38.082Z,63.78
2017-11-08T21:57:06.251Z,58.63
2017-11-08T21:59:34.382Z,54.90
2017-11-08T22:02:02.545Z,57.78
2017-11-08T22:04:30.724Z,52.50
2017-11-08T22:06:58.907Z,56.37
2017-11-08T22:09:27.063Z,59.50
2017-11-08T22:11:55.219Z,57.03
2017-11-08T22:14:23.360Z,56.28
2017-11-08T22:16:52.297Z,51.30
2017-11-08T22:19:20.448Z,55.75
2017-11-08T22:21:48.619Z,49.95
2017-11-08T22:24:16.752Z,52.35
2017-11-08T22:26:44.895Z,54.85
2017-11-08T22:29:13.052Z,51.63
2017-11-08T22:31:41.189Z,55.30
2017-11-08T22:34:09.350Z,57.53
2017-11-08T22:36:37.481Z,54.30
2017-11-08T22:39:05.642Z,56.10
2017-11-08T22:41:33.770Z,59.13
2017-11-08T22:44:01.932Z,56.08
2017-11-08T22:46:30.064Z,55.53
2017-11-08T22:48:58.235Z,53.05
2017-11-08T22:51:26.366Z,56.50
2017-11-08T22:53:54.525Z,52.20
2017-11-08T22:56:22.662Z,57.38
2017-11-08T22:58:50.815Z,58.80
2017-11-08T23:01:18.947Z,59.88
2017-11-08T23:03:47.111Z,52.62
2017-11-08T23:06:15.247Z,60.63
2017-11-08T23:08:43.400Z,53.75
2017-11-08T23:11:11.533Z,61.83
2017-11-08T23:13:39.681Z,53.03
2017-11-08T23:16:07.816Z,58.17
2017-11-08T23:18:36.739Z,60.00
2017-11-08T23:21:04.876Z,52.20
2017-11-08T23:23:33.795Z,57.70
2017-11-08T23:26:01.918Z,56.72
2017-11-08T23:28:30.078Z,52.28
2017-11-08T23:30:58.206Z,55.58
2017-11-08T23:33:26.368Z,57.25
2017-11-08T23:35:54.508Z,58.78
2017-11-08T23:38:22.672Z,56.65
2017-11-08T23:40:50.807Z,53.45
2017-11-08T23:43:18.974Z,55.53
2017-11-08T23:45:47.102Z,50.33
2017-11-08T23:48:15.243Z,53.60
2017-11-08T23:50:43.411Z,56.20
2017-11-08T23:53:11.540Z,51.40
2017-11-08T23:55:39.707Z,55.40
2017-11-08T23:58:07.845Z,53.38
